sensor_id;sensor_type;location;lat;lon;timestamp;P1;durP1;ratioP1;P2;durP2;ratioP2
1509;SDS011;746;48.688;9.428;2023-03-01T00:00:27;22.27;;;16.53;;
1509;SDS011;746;48.688;9.428;2023-03-01T00:02:50;21.77;;;16.23;;
1509;SDS011;746;48.688;9.428;2023-03-01T00:05:11;21.23;;;16.20;;
1509;SDS011;746;48.688;9.428;2023-03-01T00:07:32;23.70;;;16.87;;
1509;SDS011;746;48.688;9.428;2023-03-01T00:09:54;23.83;;;17.20;;
1509;SDS011;746;48.688;9.428;2023-03-01T00:12:15;21.03;;;16.17;;
1509;SDS011;746;48.688;9.428;2023-03-01T00:14:36;22.57;;;16.87;;
1509;SDS011;746;48.688;9.428;2023-03-01T00:16:57;21.83;;;16.87;;
1509;SDS011;746;48.688;9.428;2023-03-01T00:19:20;21.23;;;16.47;;
1509;SDS011;746;48.688;9.428;2023-03-01T00:21:42;22.13;;;16.33;;
1509;SDS011;746;48.688;9.428;2023-03-01T00:24:03;20.13;;;16.10;;
1509;SDS011;746;48.688;9.428;2023-03-01T00:26:25;21.27;;;16.43;;
1509;SDS011;746;48.688;9.428;2023-03-01T00:28:47;22.50;;;16.83;;
1509;SDS011;746;48.688;9.428;2023-03-01T00:31:09;21.63;;;16.17;;
1509;SDS011;746;48.688;9.428;2023-03-01T00:33:30;20.70;;;16.30;;
1509;SDS011;746;48.688;9.428;2023-03-01T00:35:53;20.57;;;15.93;;
1509;SDS011;746;48.688;9.428;2023-03-01T00:38:15;20.77;;;15.80;;
1509;SDS011;746;48.688;9.428;2023-03-01T00:40:36;25.00;;;16.53;;
1509;SDS011;746;48.688;9.428;2023-03-01T00:42:57;24.37;;;16.67;;
1509;SDS011;746;48.688;9.428;2023-03-01T00:45:18;24.87;;;16.83;;
1509;SDS011;746;48.688;9.428;2023-03-01T00:47:40;20.63;;;15.93;;
1509;SDS011;746;48.688;9.428;2023-03-01T00:50:01;21.67;;;16.50;;
1509;SDS011;746;48.688;9.428;2023-03-01T00:52:24;21.60;;;16.20;;
1509;SDS011;746;48.688;9.428;2023-03-01T00:54:45;20.60;;;16.37;;
1509;SDS011;746;48.688;9.428;2023-03-01T00:57:06;19.27;;;15.47;;
1509;SDS011;746;48.688;9.428;2023-03-01T00:59:27;23.20;;;15.57;;
1509;SDS011;746;48.688;9.428;2023-03-01T01:01:49;22.63;;;16.83;;
1509;SDS011;746;48.688;9.428;2023-03-01T01:04:11;22.43;;;16.23;;
1509;SDS011;746;48.688;9.428;2023-03-01T01:06:33;23.23;;;16.23;;
1509;SDS011;746;48.688;9.428;2023-03-01T01:08:57;22.03;;;15.83;;
1509;SDS011;746;48.688;9.428;2023-03-01T01:11:18;22.77;;;16.87;;
1509;SDS011;746;48.688;9.428;2023-03-01T01:13:39;21.93;;;16.47;;
1509;SDS011;746;48.688;9.428;2023-03-01T01:16:01;22.80;;;16.80;;
1509;SDS011;746;48.688;9.428;2023-03-01T01:18:22;21.00;;;16.10;;
1509;SDS011;746;48.688;9.428;2023-03-01T01:20:44;21.30;;;15.80;;
1509;SDS011;746;48.688;9.428;2023-03-01T01:23:05;24.23;;;16.73;;
1509;SDS011;746;48.688;9.428;2023-03-01T01:25:28;23.23;;;15.87;;
1509;SDS011;746;48.688;9.428;2023-03-01T01:27:50;22.87;;;16.20;;
1509;SDS011;746;48.688;9.428;2023-03-01T01:30:11;21.57;;;16.30;;
1509;SDS011;746;48.688;9.428;2023-03-01T01:32:32;23.97;;;16.33;;
1509;SDS011;746;48.688;9.428;2023-03-01T01:34:54;22.57;;;16.10;;
1509;SDS011;746;48.688;9.428;2023-03-01T01:37:15;21.20;;;16.60;;
1509;SDS011;746;48.688;9.428;2023-03-01T01:39:36;19.27;;;15.50;;
1509;SDS011;746;48.688;9.428;2023-03-01T01:41:59;22.47;;;16.70;;
1509;SDS011;746;48.688;9.428;2023-03-01T01:44:21;21.23;;;16.87;;
1509;SDS011;746;48.688;9.428;2023-03-01T01:46:44;23.37;;;16.30;;
1509;SDS011;746;48.688;9.428;2023-03-01T01:49:07;20.37;;;16.07;;
1509;SDS011;746;48.688;9.428;2023-03-01T01:51:32;20.67;;;15.40;;
1509;SDS011;746;48.688;9.428;2023-03-01T01:53:59;20.43;;;16.30;;
1509;SDS011;746;48.688;9.428;2023-03-01T01:56:21;19.93;;;15.27;;
1509;SDS011;746;48.688;9.428;2023-03-01T01:58:45;23.63;;;16.87;;
1509;SDS011;746;48.688;9.428;2023-03-01T02:01:07;21.40;;;16.37;;
1509;SDS011;746;48.688;9.428;2023-03-01T02:03:29;21.90;;;16.40;;
1509;SDS011;746;48.688;9.428;2023-03-01T02:05:53;20.80;;;16.60;;
1509;SDS011;746;48.688;9.428;2023-03-01T02:08:16;19.87;;;16.03;;
1509;SDS011;746;48.688;9.428;2023-03-01T02:10:39;21.27;;;16.13;;
1509;SDS011;746;48.688;9.428;2023-03-01T02:13:01;20.37;;;16.13;;
1509;SDS011;746;48.688;9.428;2023-03-01T02:15:24;21.00;;;16.50;;
1509;SDS011;746;48.688;9.428;2023-03-01T02:17:46;22.67;;;16.67;;
1509;SDS011;746;48.688;9.428;2023-03-01T02:20:10;21.03;;;16.63;;
1509;SDS011;746;48.688;9.428;2023-03-01T02:22:34;20.60;;;16.30;;
1509;SDS011;746;48.688;9.428;2023-03-01T02:25:03;24.57;;;16.50;;
1509;SDS011;746;48.688;9.428;2023-03-01T02:27:29;22.07;;;16.93;;
1509;SDS011;746;48.688;9.428;2023-03-01T02:29:55;23.43;;;17.23;;
1509;SDS011;746;48.688;9.428;2023-03-01T02:32:16;22.37;;;18.03;;
1509;SDS011;746;48.688;9.428;2023-03-01T02:34:45;24.13;;;17.37;;
1509;SDS011;746;48.688;9.428;2023-03-01T02:37:08;21.17;;;17.03;;
1509;SDS011;746;48.688;9.428;2023-03-01T02:39:33;22.07;;;17.13;;
1509;SDS011;746;48.688;9.428;2023-03-01T02:41:57;22.87;;;17.17;;
1509;SDS011;746;48.688;9.428;2023-03-01T02:44:20;21.00;;;16.90;;
1509;SDS011;746;48.688;9.428;2023-03-01T02:46:43;22.53;;;16.97;;
1509;SDS011;746;48.688;9.428;2023-03-01T02:49:16;22.77;;;17.00;;
1509;SDS011;746;48.688;9.428;2023-03-01T02:51:42;24.03;;;17.47;;
1509;SDS011;746;48.688;9.428;2023-03-01T02:54:08;21.37;;;16.77;;
1509;SDS011;746;48.688;9.428;2023-03-01T02:56:31;22.20;;;17.87;;
1509;SDS011;746;48.688;9.428;2023-03-01T02:58:53;22.93;;;17.13;;
1509;SDS011;746;48.688;9.428;2023-03-01T03:01:14;24.07;;;17.23;;
1509;SDS011;746;48.688;9.428;2023-03-01T03:03:37;23.03;;;17.30;;
1509;SDS011;746;48.688;9.428;2023-03-01T03:05:58;23.93;;;17.60;;
1509;SDS011;746;48.688;9.428;2023-03-01T03:08:20;23.93;;;17.20;;
1509;SDS011;746;48.688;9.428;2023-03-01T03:10:44;22.17;;;17.63;;
1509;SDS011;746;48.688;9.428;2023-03-01T03:13:06;22.90;;;17.53;;
1509;SDS011;746;48.688;9.428;2023-03-01T03:15:28;22.13;;;17.67;;
1509;SDS011;746;48.688;9.428;2023-03-01T03:17:50;22.37;;;17.60;;
1509;SDS011;746;48.688;9.428;2023-03-01T03:20:14;23.50;;;17.50;;
1509;SDS011;746;48.688;9.428;2023-03-01T03:22:38;26.83;;;18.40;;
1509;SDS011;746;48.688;9.428;2023-03-01T03:25:00;22.70;;;17.50;;
1509;SDS011;746;48.688;9.428;2023-03-01T03:27:21;24.30;;;18.60;;
1509;SDS011;746;48.688;9.428;2023-03-01T03:29:42;22.20;;;18.00;;
1509;SDS011;746;48.688;9.428;2023-03-01T03:32:04;21.93;;;17.57;;
1509;SDS011;746;48.688;9.428;2023-03-01T03:34:25;24.17;;;17.30;;
1509;SDS011;746;48.688;9.428;2023-03-01T03:36:48;23.13;;;17.63;;
1509;SDS011;746;48.688;9.428;2023-03-01T03:39:09;23.13;;;17.90;;
1509;SDS011;746;48.688;9.428;2023-03-01T03:41:30;23.63;;;17.80;;
1509;SDS011;746;48.688;9.428;2023-03-01T03:43:52;23.07;;;17.87;;
1509;SDS011;746;48.688;9.428;2023-03-01T03:46:14;22.87;;;17.97;;
1509;SDS011;746;48.688;9.428;2023-03-01T03:48:37;22.73;;;18.07;;
1509;SDS011;746;48.688;9.428;2023-03-01T03:50:58;22.93;;;17.60;;
1509;SDS011;746;48.688;9.428;2023-03-01T03:53:21;21.67;;;16.80;;
1509;SDS011;746;48.688;9.428;2023-03-01T03:55:43;23.60;;;17.77;;
1509;SDS011;746;48.688;9.428;2023-03-01T03:58:09;22.97;;;17.20;;
1509;SDS011;746;48.688;9.428;2023-03-01T04:00:31;25.07;;;18.03;;
1509;SDS011;746;48.688;9.428;2023-03-01T04:02:52;23.77;;;18.10;;
1509;SDS011;746;48.688;9.428;2023-03-01T04:05:17;22.37;;;17.43;;
1509;SDS011;746;48.688;9.428;2023-03-01T04:07:39;23.27;;;17.87;;
1509;SDS011;746;48.688;9.428;2023-03-01T04:10:02;24.67;;;17.43;;
1509;SDS011;746;48.688;9.428;2023-03-01T04:12:23;24.70;;;18.43;;
1509;SDS011;746;48.688;9.428;2023-03-01T04:14:44;24.73;;;18.97;;
1509;SDS011;746;48.688;9.428;2023-03-01T04:17:07;24.50;;;18.47;;
1509;SDS011;746;48.688;9.428;2023-03-01T04:19:29;23.13;;;17.83;;
1509;SDS011;746;48.688;9.428;2023-03-01T04:21:56;24.90;;;18.70;;
1509;SDS011;746;48.688;9.428;2023-03-01T04:24:17;24.73;;;18.87;;
1509;SDS011;746;48.688;9.428;2023-03-01T04:26:40;24.43;;;17.93;;
1509;SDS011;746;48.688;9.428;2023-03-01T04:29:01;23.57;;;18.43;;
1509;SDS011;746;48.688;9.428;2023-03-01T04:31:23;25.50;;;18.67;;
1509;SDS011;746;48.688;9.428;2023-03-01T04:33:44;24.83;;;18.90;;
1509;SDS011;746;48.688;9.428;2023-03-01T04:36:06;25.03;;;19.10;;
1509;SDS011;746;48.688;9.428;2023-03-01T04:38:28;21.63;;;17.50;;
1509;SDS011;746;48.688;9.428;2023-03-01T04:40:50;25.53;;;19.17;;
1509;SDS011;746;48.688;9.428;2023-03-01T04:43:12;22.80;;;18.40;;
1509;SDS011;746;48.688;9.428;2023-03-01T04:45:35;22.93;;;18.50;;
1509;SDS011;746;48.688;9.428;2023-03-01T04:47:56;22.63;;;17.73;;
1509;SDS011;746;48.688;9.428;2023-03-01T04:50:18;23.80;;;18.20;;
1509;SDS011;746;48.688;9.428;2023-03-01T04:52:41;25.07;;;19.27;;
1509;SDS011;746;48.688;9.428;2023-03-01T04:55:02;25.67;;;18.87;;
1509;SDS011;746;48.688;9.428;2023-03-01T04:57:24;23.67;;;18.67;;
1509;SDS011;746;48.688;9.428;2023-03-01T04:59:46;22.40;;;18.03;;
1509;SDS011;746;48.688;9.428;2023-03-01T05:02:08;24.37;;;19.37;;
1509;SDS011;746;48.688;9.428;2023-03-01T05:04:29;24.07;;;18.30;;
1509;SDS011;746;48.688;9.428;2023-03-01T05:06:51;23.53;;;17.77;;
1509;SDS011;746;48.688;9.428;2023-03-01T05:09:13;24.13;;;18.67;;
1509;SDS011;746;48.688;9.428;2023-03-01T05:11:35;22.40;;;18.50;;
1509;SDS011;746;48.688;9.428;2023-03-01T05:13:56;24.53;;;18.73;;
1509;SDS011;746;48.688;9.428;2023-03-01T05:16:19;23.87;;;19.00;;
1509;SDS011;746;48.688;9.428;2023-03-01T05:18:41;26.27;;;19.13;;
1509;SDS011;746;48.688;9.428;2023-03-01T05:21:04;24.43;;;19.17;;
1509;SDS011;746;48.688;9.428;2023-03-01T05:23:25;28.10;;;19.17;;
1509;SDS011;746;48.688;9.428;2023-03-01T05:25:47;26.17;;;18.90;;
1509;SDS011;746;48.688;9.428;2023-03-01T05:28:09;26.33;;;19.23;;
1509;SDS011;746;48.688;9.428;2023-03-01T05:30:32;25.63;;;19.33;;
1509;SDS011;746;48.688;9.428;2023-03-01T05:32:55;25.83;;;19.60;;
1509;SDS011;746;48.688;9.428;2023-03-01T05:35:17;23.47;;;18.73;;
1509;SDS011;746;48.688;9.428;2023-03-01T05:37:40;24.50;;;18.90;;
1509;SDS011;746;48.688;9.428;2023-03-01T05:40:02;23.23;;;18.83;;
1509;SDS011;746;48.688;9.428;2023-03-01T05:42:25;27.17;;;19.97;;
1509;SDS011;746;48.688;9.428;2023-03-01T05:44:46;25.57;;;19.17;;
1509;SDS011;746;48.688;9.428;2023-03-01T05:47:07;25.67;;;20.07;;
1509;SDS011;746;48.688;9.428;2023-03-01T05:49:30;28.47;;;20.80;;
1509;SDS011;746;48.688;9.428;2023-03-01T05:51:52;28.40;;;20.73;;
1509;SDS011;746;48.688;9.428;2023-03-01T05:54:14;49.13;;;34.10;;
1509;SDS011;746;48.688;9.428;2023-03-01T05:56:36;30.57;;;22.53;;
1509;SDS011;746;48.688;9.428;2023-03-01T05:58:57;34.47;;;25.80;;
1509;SDS011;746;48.688;9.428;2023-03-01T06:01:19;27.37;;;21.37;;
1509;SDS011;746;48.688;9.428;2023-03-01T06:03:40;28.77;;;22.20;;
1509;SDS011;746;48.688;9.428;2023-03-01T06:06:03;23.60;;;19.27;;
1509;SDS011;746;48.688;9.428;2023-03-01T06:08:24;25.33;;;19.40;;
1509;SDS011;746;48.688;9.428;2023-03-01T06:10:47;24.30;;;20.00;;
1509;SDS011;746;48.688;9.428;2023-03-01T06:13:08;24.33;;;19.23;;
1509;SDS011;746;48.688;9.428;2023-03-01T06:15:29;24.10;;;18.80;;
1509;SDS011;746;48.688;9.428;2023-03-01T06:17:50;26.03;;;19.50;;
1509;SDS011;746;48.688;9.428;2023-03-01T06:20:12;23.37;;;18.77;;
1509;SDS011;746;48.688;9.428;2023-03-01T06:22:35;24.10;;;18.33;;
1509;SDS011;746;48.688;9.428;2023-03-01T06:24:56;27.07;;;20.50;;
1509;SDS011;746;48.688;9.428;2023-03-01T06:27:17;25.37;;;19.30;;
1509;SDS011;746;48.688;9.428;2023-03-01T06:29:38;25.37;;;19.60;;
1509;SDS011;746;48.688;9.428;2023-03-01T06:32:01;24.70;;;19.43;;
1509;SDS011;746;48.688;9.428;2023-03-01T06:34:23;26.10;;;20.07;;
1509;SDS011;746;48.688;9.428;2023-03-01T06:36:44;26.63;;;19.53;;
1509;SDS011;746;48.688;9.428;2023-03-01T06:39:07;24.77;;;19.47;;
1509;SDS011;746;48.688;9.428;2023-03-01T06:41:28;25.37;;;18.67;;
1509;SDS011;746;48.688;9.428;2023-03-01T06:43:50;24.70;;;19.30;;
1509;SDS011;746;48.688;9.428;2023-03-01T06:46:11;25.90;;;19.07;;
1509;SDS011;746;48.688;9.428;2023-03-01T06:48:32;28.27;;;19.53;;
1509;SDS011;746;48.688;9.428;2023-03-01T06:50:53;26.50;;;19.00;;
1509;SDS011;746;48.688;9.428;2023-03-01T06:53:14;26.07;;;19.57;;
1509;SDS011;746;48.688;9.428;2023-03-01T06:55:37;26.40;;;19.30;;
1509;SDS011;746;48.688;9.428;2023-03-01T06:57:59;26.53;;;19.33;;
1509;SDS011;746;48.688;9.428;2023-03-01T07:00:20;24.23;;;18.57;;
1509;SDS011;746;48.688;9.428;2023-03-01T07:02:42;24.77;;;19.47;;
1509;SDS011;746;48.688;9.428;2023-03-01T07:05:04;26.80;;;20.57;;
1509;SDS011;746;48.688;9.428;2023-03-01T07:07:25;26.47;;;19.97;;
1509;SDS011;746;48.688;9.428;2023-03-01T07:09:46;28.23;;;19.57;;
1509;SDS011;746;48.688;9.428;2023-03-01T07:12:09;24.40;;;19.40;;
1509;SDS011;746;48.688;9.428;2023-03-01T07:14:30;24.83;;;18.57;;
1509;SDS011;746;48.688;9.428;2023-03-01T07:16:52;27.50;;;19.57;;
1509;SDS011;746;48.688;9.428;2023-03-01T07:19:13;26.13;;;19.37;;
1509;SDS011;746;48.688;9.428;2023-03-01T07:21:34;24.47;;;19.33;;
1509;SDS011;746;48.688;9.428;2023-03-01T07:23:58;26.03;;;19.80;;
1509;SDS011;746;48.688;9.428;2023-03-01T07:26:19;25.87;;;20.27;;
1509;SDS011;746;48.688;9.428;2023-03-01T07:28:45;24.83;;;19.93;;
1509;SDS011;746;48.688;9.428;2023-03-01T07:31:06;27.53;;;19.67;;
1509;SDS011;746;48.688;9.428;2023-03-01T07:33:27;24.53;;;19.80;;
1509;SDS011;746;48.688;9.428;2023-03-01T07:35:55;26.33;;;19.97;;
1509;SDS011;746;48.688;9.428;2023-03-01T07:38:16;26.60;;;20.60;;
1509;SDS011;746;48.688;9.428;2023-03-01T07:40:37;25.03;;;19.60;;
1509;SDS011;746;48.688;9.428;2023-03-01T07:42:58;24.83;;;19.70;;
1509;SDS011;746;48.688;9.428;2023-03-01T07:45:22;27.50;;;20.73;;
1509;SDS011;746;48.688;9.428;2023-03-01T07:47:43;24.97;;;19.73;;
1509;SDS011;746;48.688;9.428;2023-03-01T07:50:05;24.97;;;19.73;;
1509;SDS011;746;48.688;9.428;2023-03-01T07:52:26;26.07;;;19.83;;
1509;SDS011;746;48.688;9.428;2023-03-01T07:54:47;28.03;;;21.40;;
1509;SDS011;746;48.688;9.428;2023-03-01T07:57:09;27.00;;;19.87;;
1509;SDS011;746;48.688;9.428;2023-03-01T07:59:30;26.30;;;19.13;;
1509;SDS011;746;48.688;9.428;2023-03-01T08:01:53;24.97;;;19.40;;
1509;SDS011;746;48.688;9.428;2023-03-01T08:04:14;26.00;;;20.50;;
1509;SDS011;746;48.688;9.428;2023-03-01T08:06:36;25.13;;;20.20;;
1509;SDS011;746;48.688;9.428;2023-03-01T08:08:57;25.80;;;20.10;;
1509;SDS011;746;48.688;9.428;2023-03-01T08:11:18;28.10;;;20.40;;
1509;SDS011;746;48.688;9.428;2023-03-01T08:13:41;26.23;;;20.70;;
1509;SDS011;746;48.688;9.428;2023-03-01T08:16:04;24.83;;;20.23;;
1509;SDS011;746;48.688;9.428;2023-03-01T08:18:27;25.60;;;20.33;;
1509;SDS011;746;48.688;9.428;2023-03-01T08:20:48;25.87;;;19.70;;
1509;SDS011;746;48.688;9.428;2023-03-01T08:23:09;28.10;;;20.73;;
1509;SDS011;746;48.688;9.428;2023-03-01T08:25:31;25.50;;;19.67;;
1509;SDS011;746;48.688;9.428;2023-03-01T08:27:53;25.27;;;20.30;;
1509;SDS011;746;48.688;9.428;2023-03-01T08:30:14;26.13;;;19.67;;
1509;SDS011;746;48.688;9.428;2023-03-01T08:32:36;25.80;;;20.47;;
1509;SDS011;746;48.688;9.428;2023-03-01T08:34:59;24.33;;;19.20;;
1509;SDS011;746;48.688;9.428;2023-03-01T08:37:21;24.43;;;19.47;;
1509;SDS011;746;48.688;9.428;2023-03-01T08:39:42;23.77;;;19.73;;
1509;SDS011;746;48.688;9.428;2023-03-01T08:42:03;23.73;;;19.53;;
1509;SDS011;746;48.688;9.428;2023-03-01T08:44:24;26.87;;;20.53;;
1509;SDS011;746;48.688;9.428;2023-03-01T08:46:46;25.87;;;20.33;;
1509;SDS011;746;48.688;9.428;2023-03-01T08:49:10;27.17;;;20.93;;
1509;SDS011;746;48.688;9.428;2023-03-01T08:51:33;24.60;;;20.07;;
1509;SDS011;746;48.688;9.428;2023-03-01T08:53:56;23.70;;;19.33;;
1509;SDS011;746;48.688;9.428;2023-03-01T08:56:18;24.43;;;19.43;;
1509;SDS011;746;48.688;9.428;2023-03-01T08:58:39;26.80;;;20.83;;
1509;SDS011;746;48.688;9.428;2023-03-01T09:01:00;25.13;;;19.27;;
1509;SDS011;746;48.688;9.428;2023-03-01T09:03:21;23.97;;;19.03;;
1509;SDS011;746;48.688;9.428;2023-03-01T09:05:43;23.20;;;19.40;;
1509;SDS011;746;48.688;9.428;2023-03-01T09:08:07;23.77;;;19.63;;
1509;SDS011;746;48.688;9.428;2023-03-01T09:10:28;23.13;;;19.53;;
1509;SDS011;746;48.688;9.428;2023-03-01T09:12:50;25.47;;;19.93;;
1509;SDS011;746;48.688;9.428;2023-03-01T09:15:12;23.97;;;18.37;;
1509;SDS011;746;48.688;9.428;2023-03-01T09:17:33;24.87;;;19.73;;
1509;SDS011;746;48.688;9.428;2023-03-01T09:19:54;22.70;;;18.33;;
1509;SDS011;746;48.688;9.428;2023-03-01T09:22:16;22.47;;;19.23;;
1509;SDS011;746;48.688;9.428;2023-03-01T09:24:38;29.50;;;20.13;;
1509;SDS011;746;48.688;9.428;2023-03-01T09:27:00;23.17;;;19.13;;
1509;SDS011;746;48.688;9.428;2023-03-01T09:29:21;25.13;;;19.10;;
1509;SDS011;746;48.688;9.428;2023-03-01T09:31:42;24.07;;;20.07;;
1509;SDS011;746;48.688;9.428;2023-03-01T09:34:04;24.63;;;19.80;;
1509;SDS011;746;48.688;9.428;2023-03-01T09:36:25;24.23;;;19.37;;
1509;SDS011;746;48.688;9.428;2023-03-01T09:38:46;26.27;;;19.80;;
1509;SDS011;746;48.688;9.428;2023-03-01T09:41:11;25.83;;;20.47;;
1509;SDS011;746;48.688;9.428;2023-03-01T09:43:39;24.23;;;19.73;;
1509;SDS011;746;48.688;9.428;2023-03-01T09:46:03;23.23;;;20.10;;
1509;SDS011;746;48.688;9.428;2023-03-01T09:48:26;24.07;;;19.63;;
1509;SDS011;746;48.688;9.428;2023-03-01T09:50:48;23.00;;;18.67;;
1509;SDS011;746;48.688;9.428;2023-03-01T09:53:10;22.80;;;18.97;;
1509;SDS011;746;48.688;9.428;2023-03-01T09:55:34;25.23;;;19.87;;
1509;SDS011;746;48.688;9.428;2023-03-01T09:58:00;23.00;;;19.27;;
1509;SDS011;746;48.688;9.428;2023-03-01T10:00:29;21.90;;;18.87;;
1509;SDS011;746;48.688;9.428;2023-03-01T10:02:57;24.30;;;20.07;;
1509;SDS011;746;48.688;9.428;2023-03-01T10:05:28;23.97;;;20.20;;
1509;SDS011;746;48.688;9.428;2023-03-01T10:07:53;23.30;;;19.43;;
1509;SDS011;746;48.688;9.428;2023-03-01T10:10:21;23.27;;;18.27;;
1509;SDS011;746;48.688;9.428;2023-03-01T10:12:45;21.57;;;18.97;;
1509;SDS011;746;48.688;9.428;2023-03-01T10:15:10;25.23;;;20.47;;
1509;SDS011;746;48.688;9.428;2023-03-01T10:17:33;23.40;;;19.13;;
1509;SDS011;746;48.688;9.428;2023-03-01T10:19:56;23.30;;;18.47;;
1509;SDS011;746;48.688;9.428;2023-03-01T10:22:20;22.33;;;18.37;;
1509;SDS011;746;48.688;9.428;2023-03-01T10:24:42;22.40;;;19.57;;
1509;SDS011;746;48.688;9.428;2023-03-01T10:27:05;22.93;;;19.17;;
1509;SDS011;746;48.688;9.428;2023-03-01T10:29:30;23.30;;;18.83;;
1509;SDS011;746;48.688;9.428;2023-03-01T10:31:54;23.13;;;18.53;;
1509;SDS011;746;48.688;9.428;2023-03-01T10:34:16;21.13;;;17.53;;
1509;SDS011;746;48.688;9.428;2023-03-01T10:36:38;20.03;;;17.80;;
1509;SDS011;746;48.688;9.428;2023-03-01T10:38:59;23.17;;;17.93;;
1509;SDS011;746;48.688;9.428;2023-03-01T10:41:25;20.70;;;17.87;;
1509;SDS011;746;48.688;9.428;2023-03-01T10:43:48;26.67;;;17.83;;
1509;SDS011;746;48.688;9.428;2023-03-01T10:46:19;20.90;;;17.80;;
1509;SDS011;746;48.688;9.428;2023-03-01T10:48:44;18.70;;;16.70;;
1509;SDS011;746;48.688;9.428;2023-03-01T10:51:06;21.47;;;17.70;;
1509;SDS011;746;48.688;9.428;2023-03-01T10:53:28;20.10;;;17.50;;
1509;SDS011;746;48.688;9.428;2023-03-01T10:55:56;19.83;;;16.40;;
1509;SDS011;746;48.688;9.428;2023-03-01T10:58:18;18.93;;;15.40;;
1509;SDS011;746;48.688;9.428;2023-03-01T11:00:45;20.80;;;17.63;;
1509;SDS011;746;48.688;9.428;2023-03-01T11:03:10;20.87;;;16.67;;
1509;SDS011;746;48.688;9.428;2023-03-01T11:05:33;17.67;;;15.57;;
1509;SDS011;746;48.688;9.428;2023-03-01T11:07:55;19.47;;;16.13;;
1509;SDS011;746;48.688;9.428;2023-03-01T11:10:18;17.80;;;15.20;;
1509;SDS011;746;48.688;9.428;2023-03-01T11:12:42;18.77;;;16.23;;
1509;SDS011;746;48.688;9.428;2023-03-01T11:15:03;16.80;;;14.83;;
1509;SDS011;746;48.688;9.428;2023-03-01T11:17:27;18.00;;;15.70;;
1509;SDS011;746;48.688;9.428;2023-03-01T11:20:02;20.30;;;16.47;;
1509;SDS011;746;48.688;9.428;2023-03-01T11:22:27;17.50;;;15.57;;
1509;SDS011;746;48.688;9.428;2023-03-01T11:24:49;19.87;;;16.43;;
1509;SDS011;746;48.688;9.428;2023-03-01T11:27:28;18.63;;;15.80;;
1509;SDS011;746;48.688;9.428;2023-03-01T11:29:52;18.13;;;16.23;;
1509;SDS011;746;48.688;9.428;2023-03-01T11:32:14;20.60;;;16.53;;
1509;SDS011;746;48.688;9.428;2023-03-01T11:34:39;17.70;;;15.60;;
1509;SDS011;746;48.688;9.428;2023-03-01T11:37:02;18.83;;;15.93;;
1509;SDS011;746;48.688;9.428;2023-03-01T11:39:26;20.07;;;16.40;;
1509;SDS011;746;48.688;9.428;2023-03-01T11:41:48;18.23;;;15.90;;
1509;SDS011;746;48.688;9.428;2023-03-01T11:44:14;21.77;;;16.20;;
1509;SDS011;746;48.688;9.428;2023-03-01T11:46:47;20.23;;;15.50;;
1509;SDS011;746;48.688;9.428;2023-03-01T11:49:15;20.60;;;16.70;;
1509;SDS011;746;48.688;9.428;2023-03-01T11:51:41;20.70;;;16.03;;
1509;SDS011;746;48.688;9.428;2023-03-01T11:56:43;20.03;;;16.33;;
1509;SDS011;746;48.688;9.428;2023-03-01T12:01:45;18.07;;;16.17;;
1509;SDS011;746;48.688;9.428;2023-03-01T12:04:30;17.73;;;14.83;;
1509;SDS011;746;48.688;9.428;2023-03-01T12:06:55;17.93;;;15.57;;
1509;SDS011;746;48.688;9.428;2023-03-01T12:09:22;19.83;;;16.33;;
1509;SDS011;746;48.688;9.428;2023-03-01T12:11:51;17.83;;;16.03;;
1509;SDS011;746;48.688;9.428;2023-03-01T12:14:20;17.77;;;15.87;;
1509;SDS011;746;48.688;9.428;2023-03-01T12:16:51;19.53;;;16.20;;
1509;SDS011;746;48.688;9.428;2023-03-01T12:19:31;20.90;;;16.33;;
1509;SDS011;746;48.688;9.428;2023-03-01T12:22:02;18.60;;;15.50;;
1509;SDS011;746;48.688;9.428;2023-03-01T12:24:29;19.93;;;16.43;;
1509;SDS011;746;48.688;9.428;2023-03-01T12:26:56;19.43;;;16.73;;
1509;SDS011;746;48.688;9.428;2023-03-01T12:29:22;19.27;;;16.50;;
1509;SDS011;746;48.688;9.428;2023-03-01T12:31:58;18.83;;;15.70;;
1509;SDS011;746;48.688;9.428;2023-03-01T12:34:43;19.30;;;16.47;;
1509;SDS011;746;48.688;9.428;2023-03-01T12:37:11;17.90;;;16.00;;
1509;SDS011;746;48.688;9.428;2023-03-01T12:39:38;17.97;;;16.07;;
1509;SDS011;746;48.688;9.428;2023-03-01T12:42:06;17.90;;;16.00;;
1509;SDS011;746;48.688;9.428;2023-03-01T12:44:37;18.73;;;16.33;;
1509;SDS011;746;48.688;9.428;2023-03-01T12:47:04;18.67;;;15.90;;
1509;SDS011;746;48.688;9.428;2023-03-01T12:49:26;19.57;;;15.93;;
1509;SDS011;746;48.688;9.428;2023-03-01T12:51:50;16.97;;;15.20;;
1509;SDS011;746;48.688;9.428;2023-03-01T12:54:14;18.87;;;15.47;;
1509;SDS011;746;48.688;9.428;2023-03-01T12:56:36;18.03;;;16.13;;
1509;SDS011;746;48.688;9.428;2023-03-01T12:59:02;19.13;;;16.33;;
1509;SDS011;746;48.688;9.428;2023-03-01T13:01:33;17.07;;;15.30;;
1509;SDS011;746;48.688;9.428;2023-03-01T13:03:59;18.07;;;16.17;;
1509;SDS011;746;48.688;9.428;2023-03-01T13:06:25;19.03;;;16.43;;
1509;SDS011;746;48.688;9.428;2023-03-01T13:09:03;17.73;;;15.47;;
1509;SDS011;746;48.688;9.428;2023-03-01T13:11:26;17.70;;;15.87;;
1509;SDS011;746;48.688;9.428;2023-03-01T13:13:47;17.37;;;15.30;;
1509;SDS011;746;48.688;9.428;2023-03-01T13:16:38;18.43;;;15.67;;
1509;SDS011;746;48.688;9.428;2023-03-01T13:19:06;17.90;;;15.87;;
1509;SDS011;746;48.688;9.428;2023-03-01T13:21:29;19.47;;;16.03;;
1509;SDS011;746;48.688;9.428;2023-03-01T13:23:50;18.47;;;16.03;;
1509;SDS011;746;48.688;9.428;2023-03-01T13:26:12;20.70;;;15.87;;
1509;SDS011;746;48.688;9.428;2023-03-01T13:28:48;17.47;;;15.70;;
1509;SDS011;746;48.688;9.428;2023-03-01T13:31:10;16.30;;;14.60;;
1509;SDS011;746;48.688;9.428;2023-03-01T13:33:43;16.70;;;14.87;;
1509;SDS011;746;48.688;9.428;2023-03-01T13:36:07;17.13;;;15.40;;
1509;SDS011;746;48.688;9.428;2023-03-01T13:38:37;16.93;;;14.83;;
1509;SDS011;746;48.688;9.428;2023-03-01T13:41:00;18.13;;;14.83;;
1509;SDS011;746;48.688;9.428;2023-03-01T13:43:28;15.67;;;13.90;;
1509;SDS011;746;48.688;9.428;2023-03-01T13:45:50;16.97;;;14.90;;
1509;SDS011;746;48.688;9.428;2023-03-01T13:48:15;16.47;;;14.77;;
1509;SDS011;746;48.688;9.428;2023-03-01T13:50:45;16.60;;;14.30;;
1509;SDS011;746;48.688;9.428;2023-03-01T13:53:10;16.67;;;14.93;;
1509;SDS011;746;48.688;9.428;2023-03-01T13:55:36;15.20;;;13.60;;
1509;SDS011;746;48.688;9.428;2023-03-01T13:57:58;15.43;;;13.83;;
1509;SDS011;746;48.688;9.428;2023-03-01T14:03:00;16.13;;;14.53;;
1509;SDS011;746;48.688;9.428;2023-03-01T14:05:25;15.33;;;13.73;;
1509;SDS011;746;48.688;9.428;2023-03-01T14:07:52;15.27;;;13.60;;
1509;SDS011;746;48.688;9.428;2023-03-01T14:10:13;15.73;;;14.10;;
1509;SDS011;746;48.688;9.428;2023-03-01T14:12:38;16.10;;;14.40;;
1509;SDS011;746;48.688;9.428;2023-03-01T14:15:01;16.50;;;14.80;;
1509;SDS011;746;48.688;9.428;2023-03-01T14:17:30;16.27;;;14.67;;
1509;SDS011;746;48.688;9.428;2023-03-01T14:19:55;17.27;;;15.50;;
1509;SDS011;746;48.688;9.428;2023-03-01T14:22:18;16.67;;;14.80;;
1509;SDS011;746;48.688;9.428;2023-03-01T14:24:46;16.67;;;14.97;;
1509;SDS011;746;48.688;9.428;2023-03-01T14:27:10;18.03;;;15.37;;
1509;SDS011;746;48.688;9.428;2023-03-01T14:29:33;17.23;;;15.43;;
1509;SDS011;746;48.688;9.428;2023-03-01T14:31:55;17.47;;;15.60;;
1509;SDS011;746;48.688;9.428;2023-03-01T14:34:18;17.47;;;15.67;;
1509;SDS011;746;48.688;9.428;2023-03-01T14:36:40;17.20;;;15.43;;
1509;SDS011;746;48.688;9.428;2023-03-01T14:39:02;17.43;;;15.63;;
1509;SDS011;746;48.688;9.428;2023-03-01T14:41:38;18.00;;;16.10;;
1509;SDS011;746;48.688;9.428;2023-03-01T14:44:00;18.53;;;16.63;;